createdAt,value
2023-02-03T00:00:08.062Z,101890.48
2023-02-03T00:02:41.682Z,101894.05
2023-02-03T00:05:27.798Z,101887.77
2023-02-03T00:07:54.347Z,101897.50
2023-02-03T00:10:21.639Z,101899.22
2023-02-03T00:12:56.170Z,101903.38
2023-02-03T00:15:23.343Z,101897.04
2023-02-03T00:17:50.108Z,101894.11
2023-02-03T00:20:16.833Z,101898.50
2023-02-03T00:22:43.394Z,101898.45
2023-02-03T00:25:09.982Z,101901.45
2023-02-03T00:27:36.692Z,101900.61
2023-02-03T00:30:03.724Z,101900.20
2023-02-03T00:32:30.404Z,101896.64
2023-02-03T00:34:57.020Z,101891.57
2023-02-03T00:37:23.589Z,101896.48
2023-02-03T00:39:50.227Z,101902.50
2023-02-03T00:42:17.104Z,101911.71
2023-02-03T00:44:43.961Z,101915.58
2023-02-03T00:47:10.578Z,101912.55
2023-02-03T00:49:37.203Z,101912.96
2023-02-03T00:52:04.159Z,101923.08
2023-02-03T00:54:32.687Z,101923.19
2023-02-03T00:57:00.289Z,101915.77
2023-02-03T00:59:26.942Z,101919.31
2023-02-03T01:01:53.648Z,101920.28
2023-02-03T01:04:20.412Z,101920.72
2023-02-03T01:06:47.067Z,101923.52
2023-02-03T01:09:13.669Z,101924.02
2023-02-03T01:11:40.208Z,101921.24
2023-02-03T01:14:07.702Z,101930.16
2023-02-03T01:16:38.231Z,101936.43
2023-02-03T01:19:05.701Z,101932.20
2023-02-03T01:21:33.217Z,101923.38
2023-02-03T01:24:00.909Z,101922.90
2023-02-03T01:26:27.919Z,101931.25
2023-02-03T01:28:56.922Z,101934.41
2023-02-03T01:31:29.797Z,101928.38
2023-02-03T01:33:57.365Z,101927.80
2023-02-03T01:36:26.708Z,101930.95
2023-02-03T01:38:53.548Z,101932.41
2023-02-03T01:41:25.622Z,101924.85
2023-02-03T01:43:55.188Z,101921.63
2023-02-03T01:46:35.379Z,101912.05
2023-02-03T01:49:09.768Z,101909.79
2023-02-03T01:51:39.676Z,101912.75
2023-02-03T01:54:12.548Z,101921.36
2023-02-03T01:56:43.621Z,101923.09
2023-02-03T01:59:10.846Z,101928.14
2023-02-03T02:01:37.714Z,101920.42
2023-02-03T02:04:06.302Z,101920.11
2023-02-03T02:10:39.875Z,101918.33
2023-02-03T02:13:06.987Z,101915.02
2023-02-03T02:15:53.809Z,101910.52
2023-02-03T02:18:27.333Z,101909.27
2023-02-03T02:21:25.172Z,101906.68
2023-02-03T02:24:23.036Z,101910.91
2023-02-03T02:27:00.844Z,101911.92
2023-02-03T02:29:42.737Z,101906.03
2023-02-03T02:32:28.155Z,101915.82
2023-02-03T02:35:08.270Z,101924.27
2023-02-03T02:38:09.805Z,101932.83
2023-02-03T02:40:39.817Z,101938.38
2023-02-03T02:43:17.851Z,101941.53
2023-02-03T02:45:54.538Z,101953.35
2023-02-03T02:48:40.184Z,101945.44
2023-02-03T02:51:09.805Z,101952.53
2023-02-03T02:53:42.169Z,101957.15
2023-02-03T02:56:11.796Z,101953.30
2023-02-03T02:58:42.530Z,101951.14
2023-02-03T03:01:10.299Z,101954.00
2023-02-03T03:03:40.689Z,101955.62
2023-02-03T03:06:11.334Z,101961.46
2023-02-03T03:08:52.462Z,101958.89
2023-02-03T03:11:19.418Z,101970.29
2023-02-03T03:13:50.935Z,101976.84
2023-02-03T03:16:23.644Z,101967.02
2023-02-03T03:18:56.387Z,101961.28
2023-02-03T03:21:27.981Z,101958.42
2023-02-03T03:23:59.386Z,101962.35
2023-02-03T03:26:36.465Z,101960.08
2023-02-03T03:29:20.700Z,101958.52
2023-02-03T03:31:47.765Z,101960.17
2023-02-03T03:34:15.757Z,101957.16
2023-02-03T03:36:48.397Z,101957.86
2023-02-03T03:39:44.724Z,101966.96
2023-02-03T03:42:31.788Z,101980.89
2023-02-03T03:45:05.792Z,101988.09
2023-02-03T03:47:59.428Z,101987.30
2023-02-03T03:50:31.490Z,101993.67
2023-02-03T03:53:01.817Z,102005.44
2023-02-03T03:55:32.006Z,102005.63
2023-02-03T03:58:03.845Z,102004.13
2023-02-03T04:00:34.124Z,101994.44
2023-02-03T04:03:11.471Z,102000.46
2023-02-03T04:05:40.637Z,102006.10
2023-02-03T04:08:07.264Z,102009.48
2023-02-03T04:10:40.141Z,102008.95
2023-02-03T04:13:07.710Z,102010.60
2023-02-03T04:15:34.916Z,102004.98
2023-02-03T04:18:02.281Z,102010.67
2023-02-03T04:20:30.377Z,102011.23
2023-02-03T04:22:57.768Z,102008.40
2023-02-03T04:25:25.213Z,102004.05
2023-02-03T04:27:51.911Z,102005.21
2023-02-03T04:30:18.754Z,102006.52
2023-02-03T04:32:46.034Z,102005.83
2023-02-03T04:35:12.809Z,101994.44
2023-02-03T04:37:39.317Z,101981.59
2023-02-03T04:40:07.178Z,101976.98
2023-02-03T04:42:33.949Z,101967.50
2023-02-03T04:45:00.479Z,101967.70
2023-02-03T04:47:27.016Z,101971.61
2023-02-03T04:49:53.555Z,101976.98
2023-02-03T04:52:20.571Z,101977.61
2023-02-03T04:54:47.104Z,101981.13
2023-02-03T04:57:13.707Z,101979.19
2023-02-03T04:59:40.273Z,101975.21
2023-02-03T05:02:08.172Z,101969.20
2023-02-03T05:04:34.810Z,101968.41
2023-02-03T05:07:01.388Z,101972.22
2023-02-03T05:09:28.566Z,101971.94
2023-02-03T05:11:55.181Z,101971.56
2023-02-03T05:14:21.768Z,101963.80
2023-02-03T05:16:48.370Z,101954.93
2023-02-03T05:19:14.989Z,101952.92
2023-02-03T05:21:41.528Z,101954.88
2023-02-03T05:24:08.261Z,101959.77
2023-02-03T05:26:36.110Z,101964.47
2023-02-03T05:29:03.429Z,101968.09
2023-02-03T05:31:30.045Z,101970.23
2023-02-03T05:33:56.736Z,101964.33
2023-02-03T05:36:23.284Z,101957.45
2023-02-03T05:38:50.014Z,101959.10
2023-02-03T05:41:35.008Z,101962.09
2023-02-03T05:44:01.644Z,101963.77
2023-02-03T05:46:28.265Z,101968.20
2023-02-03T05:48:54.869Z,101973.05
2023-02-03T05:51:21.402Z,101965.33
2023-02-03T05:53:47.958Z,101964.08
2023-02-03T05:56:14.564Z,101972.54
2023-02-03T05:58:41.120Z,101979.76
2023-02-03T06:01:07.710Z,101984.54
2023-02-03T06:03:34.362Z,101997.33
2023-02-03T06:06:01.119Z,101998.73
2023-02-03T06:08:28.733Z,101988.73
2023-02-03T06:10:59.989Z,101979.23
2023-02-03T06:13:27.525Z,101991.65
2023-02-03T06:15:54.240Z,102001.85
2023-02-03T06:18:21.240Z,101997.38
2023-02-03T06:20:47.977Z,101997.33
2023-02-03T06:23:17.183Z,101995.14
2023-02-03T06:25:43.819Z,102008.33
2023-02-03T06:28:10.953Z,102018.59
2023-02-03T06:30:37.794Z,102026.05
2023-02-03T06:33:04.346Z,102038.21
2023-02-03T06:35:31.127Z,102042.56
2023-02-03T06:37:57.704Z,102035.34
2023-02-03T06:40:24.299Z,102036.69
2023-02-03T06:42:51.476Z,102044.95
2023-02-03T06:45:18.602Z,102054.63
2023-02-03T06:47:45.892Z,102062.27
2023-02-03T06:50:14.918Z,102075.63
2023-02-03T06:52:41.918Z,102086.86
2023-02-03T06:55:08.949Z,102088.61
2023-02-03T06:57:35.612Z,102079.55
2023-02-03T07:00:02.519Z,102081.52
2023-02-03T07:02:29.072Z,102097.36
2023-02-03T07:04:55.629Z,102086.52
2023-02-03T07:07:22.185Z,102088.46
2023-02-03T07:09:48.774Z,102097.58
2023-02-03T07:12:15.380Z,102101.28
2023-02-03T07:14:42.243Z,102097.22
2023-02-03T07:17:08.824Z,102088.90
2023-02-03T07:19:35.420Z,102105.66
2023-02-03T07:22:02.009Z,102090.30
2023-02-03T07:24:28.562Z,102091.00
2023-02-03T07:26:55.097Z,102094.02
2023-02-03T07:29:21.685Z,102079.70
2023-02-03T07:31:48.347Z,102081.48
2023-02-03T07:34:15.101Z,102101.46
2023-02-03T07:36:41.731Z,102114.11
2023-02-03T07:39:08.364Z,102118.13
2023-02-03T07:41:35.025Z,102119.55
2023-02-03T07:44:01.594Z,102108.03
2023-02-03T07:46:28.654Z,102109.66
2023-02-03T07:48:55.240Z,102109.56
2023-02-03T07:51:21.938Z,102106.36
2023-02-03T07:53:48.535Z,102106.96
2023-02-03T07:56:15.169Z,102120.48
2023-02-03T07:58:41.743Z,102126.20
2023-02-03T08:01:16.873Z,102121.02
2023-02-03T08:03:43.839Z,102122.31
2023-02-03T08:06:10.996Z,102125.22
2023-02-03T08:08:37.689Z,102135.99
2023-02-03T08:11:04.430Z,102123.84
2023-02-03T08:13:30.887Z,102121.11
2023-02-03T08:15:57.571Z,102118.05
2023-02-03T08:22:19.414Z,102105.36
2023-02-03T08:24:47.136Z,102115.04
2023-02-03T08:27:18.932Z,102117.98
2023-02-03T08:29:46.287Z,102111.27
2023-02-03T08:32:16.560Z,102124.06
2023-02-03T08:34:44.103Z,102114.95
2023-02-03T08:37:13.270Z,102107.27
2023-02-03T08:39:40.402Z,102100.21
2023-02-03T08:42:07.581Z,102101.02
2023-02-03T08:44:35.043Z,102095.35
2023-02-03T08:47:02.332Z,102088.84
2023-02-03T08:49:30.550Z,102101.01
2023-02-03T08:51:58.339Z,102100.34
2023-02-03T08:58:32.411Z,102101.16
2023-02-03T09:04:54.375Z,102119.46
2023-02-03T09:07:21.865Z,102130.06
2023-02-03T09:09:48.654Z,102117.59
2023-02-03T09:12:15.463Z,102103.89
2023-02-03T09:19:02.000Z,102093.73
2023-02-03T09:25:49.938Z,102119.02
2023-02-03T09:28:16.656Z,102123.88
2023-02-03T09:30:43.370Z,102136.08
2023-02-03T09:33:10.048Z,102134.05
2023-02-03T09:35:36.703Z,102135.17
2023-02-03T09:38:03.378Z,102140.98
2023-02-03T09:40:36.957Z,102142.21
2023-02-03T09:43:08.033Z,102138.06
2023-02-03T09:49:58.539Z,102128.91
2023-02-03T09:52:32.470Z,102128.02
2023-02-03T09:59:19.867Z,102136.08
2023-02-03T10:01:55.670Z,102128.14
2023-02-03T10:04:40.112Z,102120.43
2023-02-03T10:07:17.362Z,102112.77
2023-02-03T10:10:03.478Z,102115.25
2023-02-03T10:12:54.909Z,102128.14
2023-02-03T10:15:27.591Z,102132.23
2023-02-03T10:18:00.657Z,102131.33
2023-02-03T10:20:39.468Z,102127.81
2023-02-03T10:23:15.199Z,102126.22
2023-02-03T10:25:45.657Z,102120.64
2023-02-03T10:32:40.461Z,102121.52
2023-02-03T10:35:12.908Z,102111.90
2023-02-03T10:42:01.348Z,102102.35
2023-02-03T10:44:38.200Z,102090.98
2023-02-03T10:47:25.091Z,102084.35
2023-02-03T10:49:54.343Z,102078.83
2023-02-03T10:52:31.160Z,102070.02
2023-02-03T10:59:30.673Z,102045.00
2023-02-03T11:01:57.828Z,102039.52
2023-02-03T11:04:33.735Z,102032.84
2023-02-03T11:07:03.570Z,102036.89
2023-02-03T11:14:17.211Z,102025.84
2023-02-03T11:16:47.465Z,102020.81
2023-02-03T11:19:19.003Z,102024.77
2023-02-03T11:21:50.238Z,102018.41
2023-02-03T11:24:26.108Z,102015.30
2023-02-03T11:27:13.082Z,102007.09
2023-02-03T11:29:49.418Z,101999.71
2023-02-03T11:32:23.686Z,101992.31
2023-02-03T11:35:00.651Z,101998.20
2023-02-03T11:37:37.964Z,101995.23
2023-02-03T11:44:33.752Z,101981.80
2023-02-03T11:47:09.254Z,101975.45
2023-02-03T11:54:13.641Z,101950.38
2023-02-03T11:56:43.131Z,101944.73
2023-02-03T11:59:24.681Z,101944.70
2023-02-03T12:02:22.128Z,101937.25
2023-02-03T12:05:02.614Z,101929.81
2023-02-03T12:07:41.468Z,101924.70
2023-02-03T12:10:14.070Z,101918.77
2023-02-03T12:12:59.179Z,101916.95
2023-02-03T12:16:00.240Z,101906.84
2023-02-03T12:23:04.086Z,101885.58
2023-02-03T12:29:51.555Z,101875.53
2023-02-03T12:32:40.026Z,101873.02
2023-02-03T12:35:34.961Z,101868.39
2023-02-03T12:38:10.709Z,101852.48
2023-02-03T12:40:49.401Z,101847.73
2023-02-03T12:43:28.005Z,101847.35
2023-02-03T12:50:34.590Z,101832.02
2023-02-03T12:53:07.392Z,101826.80
2023-02-03T12:55:41.255Z,101813.99
2023-02-03T12:58:17.898Z,101810.01
2023-02-03T13:00:50.813Z,101811.24
2023-02-03T13:03:35.880Z,101808.95
2023-02-03T13:06:23.839Z,101802.81
2023-02-03T13:08:58.057Z,101790.90
2023-02-03T13:11:33.912Z,101785.58
2023-02-03T13:18:26.450Z,101781.39
2023-02-03T13:20:54.478Z,101780.95
2023-02-03T13:28:09.276Z,101770.95
2023-02-03T13:30:57.941Z,101769.65
2023-02-03T13:33:57.518Z,101761.50
2023-02-03T13:36:36.471Z,101760.35
2023-02-03T13:39:40.141Z,101764.41
2023-02-03T13:42:19.137Z,101766.57
2023-02-03T13:44:50.439Z,101761.48
2023-02-03T13:47:26.103Z,101765.68
2023-02-03T13:49:59.832Z,101766.82
2023-02-03T13:52:32.529Z,101764.01
2023-02-03T13:55:00.345Z,101762.84
2023-02-03T13:57:37.115Z,101757.27
2023-02-03T14:00:42.639Z,101748.59
2023-02-03T14:03:24.494Z,101742.07
2023-02-03T14:05:56.149Z,101742.19
2023-02-03T14:08:26.031Z,101743.64
2023-02-03T14:11:30.572Z,101743.90
2023-02-03T14:14:09.667Z,101731.48
2023-02-03T14:16:37.611Z,101729.09
2023-02-03T14:19:08.796Z,101731.01
2023-02-03T14:21:47.989Z,101731.13
2023-02-03T14:24:16.147Z,101731.10
2023-02-03T14:26:46.193Z,101736.86
2023-02-03T14:29:27.198Z,101743.15
2023-02-03T14:36:47.945Z,101739.96
2023-02-03T14:39:17.822Z,101732.17
2023-02-03T14:42:05.105Z,101737.45
2023-02-03T14:44:53.336Z,101739.77
2023-02-03T14:47:25.736Z,101737.40
2023-02-03T14:50:26.385Z,101743.29
2023-02-03T14:53:21.247Z,101733.83
2023-02-03T14:56:11.578Z,101736.73
2023-02-03T14:59:03.157Z,101741.05
2023-02-03T15:01:35.781Z,101745.64
2023-02-03T15:04:11.578Z,101746.70
2023-02-03T15:06:44.153Z,101747.27
2023-02-03T15:09:39.117Z,101735.13
2023-02-03T15:12:20.258Z,101740.13
2023-02-03T15:14:46.973Z,101730.84
2023-02-03T15:17:26.781Z,101734.11
2023-02-03T15:19:53.972Z,101731.38
2023-02-03T15:22:29.639Z,101728.84
2023-02-03T15:25:04.383Z,101727.52
2023-02-03T15:27:33.364Z,101730.52
2023-02-03T15:30:15.848Z,101729.88
2023-02-03T15:32:53.312Z,101726.43
2023-02-03T15:35:20.987Z,101725.05
2023-02-03T15:37:55.997Z,101721.13
2023-02-03T15:40:26.021Z,101715.17
2023-02-03T15:42:59.304Z,101712.35
2023-02-03T15:45:35.816Z,101714.23
2023-02-03T15:48:05.441Z,101722.49
2023-02-03T15:50:36.586Z,101714.66
2023-02-03T15:53:18.043Z,101724.05
2023-02-03T15:55:51.328Z,101719.89
2023-02-03T15:58:22.524Z,101722.38
2023-02-03T16:00:52.540Z,101714.88
2023-02-03T16:03:27.145Z,101713.05
2023-02-03T16:05:54.371Z,101707.69
2023-02-03T16:08:41.862Z,101714.38
2023-02-03T16:11:38.725Z,101714.87
2023-02-03T16:14:11.519Z,101716.25
2023-02-03T16:17:03.945Z,101712.77
2023-02-03T16:19:38.669Z,101707.67
2023-02-03T16:22:05.346Z,101700.30
2023-02-03T16:24:42.555Z,101684.45
2023-02-03T16:27:27.971Z,101683.92
2023-02-03T16:30:22.653Z,101670.54
2023-02-03T16:33:37.493Z,101669.05
2023-02-03T16:36:31.758Z,101660.44
2023-02-03T16:39:21.002Z,101654.58
2023-02-03T16:42:06.424Z,101660.67
2023-02-03T16:49:05.530Z,101672.57
2023-02-03T16:51:39.210Z,101664.30
2023-02-03T16:54:07.235Z,101664.14
2023-02-03T16:56:33.904Z,101665.95
2023-02-03T16:59:00.558Z,101665.02
2023-02-03T17:01:27.575Z,101667.67
2023-02-03T17:03:54.302Z,101665.98
2023-02-03T17:06:20.857Z,101671.51
2023-02-03T17:08:47.515Z,101673.29
2023-02-03T17:11:16.026Z,101680.16
2023-02-03T17:13:43.299Z,101682.14
2023-02-03T17:16:13.922Z,101684.17
2023-02-03T17:18:41.131Z,101677.71
2023-02-03T17:21:10.699Z,101677.77
2023-02-03T17:23:38.382Z,101666.65
2023-02-03T17:30:35.522Z,101645.23
2023-02-03T17:37:34.332Z,101621.70
2023-02-03T17:58:00.850Z,101610.02
2023-02-03T18:00:27.955Z,101602.52
2023-02-03T18:02:55.488Z,101600.59
2023-02-03T18:05:23.041Z,101587.92
2023-02-03T18:07:50.099Z,101579.05
2023-02-03T18:14:43.509Z,101582.83
2023-02-03T18:21:25.484Z,101588.20
2023-02-03T18:23:56.961Z,101585.77
2023-02-03T18:26:23.751Z,101574.02
2023-02-03T18:28:53.932Z,101564.66
2023-02-03T18:31:20.967Z,101560.30
2023-02-03T18:33:48.378Z,101554.17
2023-02-03T18:36:16.829Z,101565.08
2023-02-03T18:38:45.309Z,101557.45
2023-02-03T18:41:15.801Z,101554.67
2023-02-03T18:47:49.597Z,101549.82
2023-02-03T18:50:16.900Z,101544.57
2023-02-03T18:52:43.664Z,101538.09
2023-02-03T18:55:10.329Z,101553.20
2023-02-03T18:57:37.153Z,101553.02
2023-02-03T19:00:04.609Z,101545.85
2023-02-03T19:02:31.273Z,101530.54
2023-02-03T19:04:57.901Z,101529.10
2023-02-03T19:07:24.530Z,101522.91
2023-02-03T19:09:51.194Z,101527.30
2023-02-03T19:16:31.816Z,101504.83
2023-02-03T19:18:58.612Z,101498.63
2023-02-03T19:21:25.294Z,101495.52
2023-02-03T19:23:51.920Z,101495.94
2023-02-03T19:26:18.633Z,101494.61
2023-02-03T19:28:45.228Z,101492.71
2023-02-03T19:31:15.571Z,101482.40
2023-02-03T19:33:42.471Z,101475.73
2023-02-03T19:40:05.034Z,101467.41
2023-02-03T19:42:32.126Z,101445.40
2023-02-03T19:44:58.830Z,101453.61
2023-02-03T19:47:25.580Z,101453.64
2023-02-03T19:49:52.230Z,101455.48
2023-02-03T19:52:18.930Z,101453.07
2023-02-03T19:54:45.443Z,101444.50
2023-02-03T19:57:12.118Z,101434.41
2023-02-03T19:59:38.749Z,101428.05
2023-02-03T20:02:13.767Z,101419.56
2023-02-03T20:08:56.576Z,101412.20
2023-02-03T20:11:23.329Z,101412.91
2023-02-03T20:17:45.076Z,101394.23
2023-02-03T20:24:33.029Z,101389.75
2023-02-03T20:26:59.661Z,101396.55
2023-02-03T20:29:26.379Z,101388.66
2023-02-03T20:31:54.346Z,101393.23
2023-02-03T20:34:21.054Z,101390.79
2023-02-03T20:40:35.874Z,101393.10
2023-02-03T20:43:18.355Z,101388.20
2023-02-03T20:45:45.382Z,101394.54
2023-02-03T20:52:39.860Z,101391.90
2023-02-03T20:55:13.050Z,101387.26
2023-02-03T20:57:39.968Z,101389.83
2023-02-03T21:00:17.806Z,101390.74
2023-02-03T21:03:04.321Z,101394.34
2023-02-03T21:09:44.468Z,101392.14
2023-02-03T21:16:38.651Z,101386.48
2023-02-03T21:19:11.816Z,101383.13
2023-02-03T21:25:59.032Z,101393.98
2023-02-03T21:28:30.265Z,101393.02
2023-02-03T21:30:58.924Z,101397.02
2023-02-03T21:33:37.934Z,101404.06
2023-02-03T21:36:04.909Z,101399.09
2023-02-03T21:38:33.107Z,101396.70
2023-02-03T21:45:24.216Z,101391.85
2023-02-03T21:47:52.553Z,101392.63
2023-02-03T21:54:43.666Z,101411.97
2023-02-03T21:57:15.090Z,101412.63
2023-02-03T21:59:46.568Z,101417.66
2023-02-03T22:06:36.557Z,101398.66
2023-02-03T22:09:03.194Z,101399.83
2023-02-03T22:15:44.002Z,101395.45
2023-02-03T22:22:31.838Z,101395.05
2023-02-03T22:24:58.505Z,101389.91
2023-02-03T22:27:25.673Z,101391.21
2023-02-03T22:29:56.382Z,101393.08
2023-02-03T22:32:23.006Z,101402.45
2023-02-03T22:34:49.678Z,101404.16
2023-02-03T22:37:16.317Z,101406.98
2023-02-03T22:44:04.263Z,101414.75
2023-02-03T22:46:30.743Z,101412.27
2023-02-03T22:48:57.490Z,101413.02
2023-02-03T22:51:24.115Z,101425.56
2023-02-03T22:53:50.765Z,101427.21
2023-02-03T22:56:17.456Z,101430.63
2023-02-03T22:58:44.085Z,101427.23
2023-02-03T23:01:10.675Z,101430.59
2023-02-03T23:03:37.564Z,101416.44
2023-02-03T23:06:04.288Z,101401.07
2023-02-03T23:08:30.869Z,101410.23
2023-02-03T23:10:57.514Z,101409.54
2023-02-03T23:13:24.209Z,101406.31
2023-02-03T23:15:51.400Z,101404.19
2023-02-03T23:18:18.186Z,101406.11
2023-02-03T23:20:44.811Z,101405.70
2023-02-03T23:23:11.572Z,101404.04
2023-02-03T23:25:38.135Z,101406.48
2023-02-03T23:28:04.969Z,101408.33
2023-02-03T23:30:31.810Z,101402.52
2023-02-03T23:32:58.830Z,101402.65
2023-02-03T23:35:44.183Z,101401.20
2023-02-03T23:38:11.129Z,101399.66
2023-02-03T23:40:37.832Z,101404.77
2023-02-03T23:43:04.564Z,101403.81
2023-02-03T23:45:31.227Z,101390.80
2023-02-03T23:47:57.864Z,101381.17
2023-02-03T23:50:24.536Z,101380.19
2023-02-03T23:52:51.102Z,101379.89
2023-02-03T23:55:20.839Z,101380.74
2023-02-03T23:57:47.885Z,101368.55
